Time;durP1;ratioP1;P1;durP2;ratioP2;P2;SDS_P1;SDS_P2;PMS_P1;PMS_P2;Temp;Humidity;BMP_temperature;BMP_pressure;BME280_temperature;BME280_humidity;BME280_pressure;Samples;Min_cycle;Max_cycle;Signal;HPM_P1;HPM_P2
2024/03/23 00:00:01;;;;;;;;;;;;;;;20.53;27.17;98055.91;4918596;29;824;-78
2024/03/23 00:02:28;;;;;;;;;;;;;;;20.71;27.27;98061.97;4919470;29;832;-78
2024/03/23 00:04:54;;;;;;;;;;;;;;;20.86;26.64;98051.13;4916380;29;1054;-78
2024/03/23 00:07:20;;;;;;;;;;;;;;;20.85;26.80;98048.75;4884841;29;1177;-78
2024/03/23 00:09:46;;;;;;;;;;;;;;;21.07;26.30;98047.00;4934653;28;1902;-78
2024/03/23 00:12:12;;;;;;;;;;;;;;;20.74;27.05;98041.31;4995899;28;826;-78
2024/03/23 00:14:38;;;;;;;;;;;;;;;20.55;27.14;98036.47;4995509;28;866;-78
2024/03/23 00:17:04;;;;;;;;;;;;;;;20.53;26.91;98039.75;5011920;28;796;-78
2024/03/23 00:19:31;;;;;;;;;;;;;;;20.71;27.03;98028.03;5009701;28;1120;-78
2024/03/23 00:21:57;;;;;;;;;;;;;;;20.84;27.05;98030.19;5035333;28;846;-78
2024/03/23 00:24:23;;;;;;;;;;;;;;;20.98;26.77;98046.81;5034625;28;838;-78
2024/03/23 00:26:49;;;;;;;;;;;;;;;20.92;26.79;98042.91;5034883;28;1239;-78
2024/03/23 00:29:15;;;;;;;;;;;;;;;20.88;26.88;98045.84;5018448;28;1187;-78
2024/03/23 00:31:41;;;;;;;;;;;;;;;20.84;26.92;98035.84;5035233;28;2015;-79
2024/03/23 00:34:07;;;;;;;;;;;;;;;20.38;26.99;98031.97;5036979;28;838;-77
2024/03/23 00:36:34;;;;;;;;;;;;;;;20.50;27.44;98028.50;5039619;28;1385;-78
2024/03/23 00:39:00;;;;;;;;;;;;;;;20.39;27.62;98022.25;5008160;28;1136;-78
2024/03/23 00:41:26;;;;;;;;;;;;;;;20.52;27.29;98037.34;5021779;28;839;-78
2024/03/23 00:43:52;;;;;;;;;;;;;;;20.56;27.08;98021.09;5004884;28;1614;-78
2024/03/23 00:46:18;;;;;;;;;;;;;;;20.53;27.30;98024.81;5005396;28;2052;-79
2024/03/23 00:48:45;;;;;;;;;;;;;;;20.46;27.25;98027.75;5004593;28;912;-79
2024/03/23 00:51:11;;;;;;;;;;;;;;;20.67;27.18;98016.00;5005282;28;1906;-78
2024/03/23 00:53:37;;;;;;;;;;;;;;;20.71;27.12;98022.38;5021087;28;811;-78
2024/03/23 00:56:03;;;;;;;;;;;;;;;20.67;27.24;98021.66;5005182;28;933;-78
2024/03/23 00:58:28;;;;;;;;;;;;;;;20.56;27.40;98015.44;4987885;28;1390;-78
2024/03/23 01:00:54;;;;;;;;;;;;;;;20.71;27.02;98013.88;5021246;28;1150;-79
2024/03/23 01:03:19;;;;;;;;;;;;;;;21.00;26.44;98016.06;5020822;28;1224;-78
2024/03/23 01:05:45;;;;;;;;;;;;;;;21.30;26.03;98012.94;5021417;28;960;-78
2024/03/23 01:08:10;;;;;;;;;;;;;;;21.00;26.16;98018.91;5020713;28;1314;-78
2024/03/23 01:10:36;;;;;;;;;;;;;;;21.21;26.11;98014.75;5006521;28;1976;-78
2024/03/23 01:13:01;;;;;;;;;;;;;;;20.89;26.59;98015.53;4997886;28;1336;-78
2024/03/23 01:15:27;;;;;;;;;;;;;;;20.99;26.28;98014.47;5024310;28;1152;-78
2024/03/23 01:17:53;;;;;;;;;;;;;;;20.99;26.24;98011.66;5007621;28;791;-78
2024/03/23 01:20:18;;;;;;;;;;;;;;;20.96;26.19;98015.34;5040295;28;759;-79
2024/03/23 01:22:44;;;;;;;;;;;;;;;21.04;26.01;98006.25;5024429;28;1241;-79
2024/03/23 01:25:09;;;;;;;;;;;;;;;21.28;25.72;98004.03;5023678;28;1115;-78
2024/03/23 01:27:35;;;;;;;;;;;;;;;20.81;26.49;98006.41;5024152;28;1060;-79
2024/03/23 01:30:00;;;;;;;;;;;;;;;20.35;27.18;98004.56;5023890;28;1971;-78
2024/03/23 01:32:26;;;;;;;;;;;;;;;20.40;27.00;98006.91;5024656;28;1159;-78
2024/03/23 01:34:51;;;;;;;;;;;;;;;20.80;26.49;98002.00;5040607;28;727;-78
2024/03/23 01:37:17;;;;;;;;;;;;;;;20.89;26.32;98005.00;5040804;28;827;-78
2024/03/23 01:39:42;;;;;;;;;;;;;;;20.41;26.80;98006.44;5041214;28;795;-78
2024/03/23 01:42:08;;;;;;;;;;;;;;;20.73;26.26;98005.78;5042124;28;1159;-79
2024/03/23 01:44:33;;;;;;;;;;;;;;;20.61;26.48;98000.78;5042500;28;759;-78
2024/03/23 01:46:59;;;;;;;;;;;;;;;20.94;26.23;98000.88;5042142;28;798;-78
2024/03/23 01:49:24;;;;;;;;;;;;;;;20.85;26.44;97998.63;5038187;28;810;-79
2024/03/23 01:51:50;;;;;;;;;;;;;;;20.84;26.02;98004.75;5021803;28;1989;-78
2024/03/23 01:54:15;;;;;;;;;;;;;;;21.27;25.41;97998.81;5021301;28;1281;-79
2024/03/23 01:56:41;;;;;;;;;;;;;;;20.80;26.15;97994.28;4997511;28;944;-78
2024/03/23 01:59:07;;;;;;;;;;;;;;;21.39;25.16;97994.50;4997538;28;759;-79
2024/03/23 02:01:32;;;;;;;;;;;;;;;21.17;25.24;97997.84;4981718;28;869;-78
2024/03/23 02:03:58;;;;;;;;;;;;;;;20.87;25.60;98004.63;4948913;28;993;-78
2024/03/23 02:06:24;;;;;;;;;;;;;;;20.57;26.28;97994.41;4981678;28;843;-78
2024/03/23 02:08:49;;;;;;;;;;;;;;;20.07;27.11;97997.50;4981161;28;1259;-78
2024/03/23 02:11:15;;;;;;;;;;;;;;;20.87;25.83;97989.69;4981792;28;1906;-78
2024/03/23 02:13:40;;;;;;;;;;;;;;;20.97;26.08;97988.66;4980782;28;1278;-78
2024/03/23 02:16:06;;;;;;;;;;;;;;;20.69;26.04;97985.28;4998198;28;930;-78
2024/03/23 02:18:32;;;;;;;;;;;;;;;20.68;26.50;97980.06;4980648;28;823;-78
2024/03/23 02:20:57;;;;;;;;;;;;;;;20.95;26.12;97985.47;4997906;28;1139;-79
2024/03/23 02:23:24;;;;;;;;;;;;;;;21.02;26.06;97985.28;4947943;28;998;-78
2024/03/23 02:25:50;;;;;;;;;;;;;;;20.76;26.32;97979.44;4980731;28;1096;-79
2024/03/23 02:28:15;;;;;;;;;;;;;;;21.36;25.37;97986.91;5054700;28;1156;-78
2024/03/23 02:30:41;;;;;;;;;;;;;;;20.64;26.41;97988.63;5054474;28;1917;-78
2024/03/23 02:33:06;;;;;;;;;;;;;;;20.36;26.86;97980.72;5037259;28;1347;-78
2024/03/23 02:35:32;;;;;;;;;;;;;;;20.71;26.68;97982.78;5037562;28;771;-78
2024/03/23 02:37:58;;;;;;;;;;;;;;;20.47;27.03;97978.53;5037547;28;1183;-78
2024/03/23 02:40:23;;;;;;;;;;;;;;;20.52;26.83;97989.28;5037407;28;1122;-78
2024/03/23 02:42:49;;;;;;;;;;;;;;;20.85;26.90;97980.88;5020760;28;850;-78
2024/03/23 02:45:14;;;;;;;;;;;;;;;21.04;26.84;97985.66;5037357;28;764;-78
2024/03/23 02:47:40;;;;;;;;;;;;;;;20.71;27.67;97977.13;5037746;28;1309;-78
2024/03/23 02:50:06;;;;;;;;;;;;;;;21.05;27.18;97984.44;5038596;28;1914;-77
2024/03/23 02:52:31;;;;;;;;;;;;;;;21.23;26.61;97981.94;5021343;28;1196;-78
2024/03/23 02:54:57;;;;;;;;;;;;;;;21.10;27.06;97981.06;5036916;28;720;-78
2024/03/23 02:57:22;;;;;;;;;;;;;;;20.75;27.34;97977.84;5037505;28;719;-78
2024/03/23 02:59:48;;;;;;;;;;;;;;;20.94;27.02;97972.59;5015624;28;1179;-78
2024/03/23 03:02:13;;;;;;;;;;;;;;;21.00;26.99;97977.25;5016834;28;960;-78
2024/03/23 03:04:39;;;;;;;;;;;;;;;20.68;27.45;97977.25;4999654;28;1158;-78
2024/03/23 03:07:04;;;;;;;;;;;;;;;20.91;27.38;97976.28;5000067;28;807;-78
2024/03/23 03:09:30;;;;;;;;;;;;;;;20.90;27.04;97974.69;4983347;28;1540;-78
2024/03/23 03:11:55;;;;;;;;;;;;;;;21.29;26.60;97977.31;4999978;28;1968;-78
2024/03/23 03:14:21;;;;;;;;;;;;;;;20.95;27.19;97974.16;4976308;28;1555;-78
2024/03/23 03:16:47;;;;;;;;;;;;;;;20.66;27.35;97974.81;4945231;28;815;-78
2024/03/23 03:19:12;;;;;;;;;;;;;;;20.72;26.94;97973.06;4960876;28;947;-78
2024/03/23 03:21:38;;;;;;;;;;;;;;;20.79;27.17;97966.47;4945076;28;851;-79
2024/03/23 03:24:03;;;;;;;;;;;;;;;20.94;27.28;97966.91;4960370;28;786;-78
2024/03/23 03:26:29;;;;;;;;;;;;;;;21.11;26.64;97960.00;4961022;28;961;-78
2024/03/23 03:28:54;;;;;;;;;;;;;;;20.94;27.28;97975.41;4976456;28;836;-78
2024/03/23 03:31:20;;;;;;;;;;;;;;;20.68;27.43;97969.56;4989084;28;1918;-78
2024/03/23 03:33:46;;;;;;;;;;;;;;;20.94;26.98;97972.59;4998951;28;828;-78
2024/03/23 03:36:11;;;;;;;;;;;;;;;20.79;27.18;97974.94;4999823;28;739;-78
2024/03/23 03:38:38;;;;;;;;;;;;;;;20.72;26.99;97970.25;5014989;28;748;-77
2024/03/23 03:41:04;;;;;;;;;;;;;;;20.64;27.35;97971.66;4999865;28;841;-78
2024/03/23 03:43:29;;;;;;;;;;;;;;;20.86;27.34;97962.66;4998710;28;806;-78
2024/03/23 03:45:55;;;;;;;;;;;;;;;20.74;27.16;97967.78;5009625;28;1116;-78
2024/03/23 03:48:21;;;;;;;;;;;;;;;20.98;26.86;97967.59;5036187;28;1152;-78
2024/03/23 03:50:46;;;;;;;;;;;;;;;20.72;27.32;97967.41;5036607;28;1910;-78
2024/03/23 03:53:12;;;;;;;;;;;;;;;20.75;26.94;97971.41;5052123;28;1068;-78
2024/03/23 03:55:37;;;;;;;;;;;;;;;20.83;26.70;97977.69;5036207;28;747;-78
2024/03/23 03:58:04;;;;;;;;;;;;;;;20.66;27.29;97976.88;5035681;28;850;-78
2024/03/23 04:00:30;;;;;;;;;;;;;;;20.93;27.11;97979.44;5036572;28;807;-78
2024/03/23 04:02:55;;;;;;;;;;;;;;;21.16;26.85;97973.63;5003526;28;1675;-78
2024/03/23 04:05:21;;;;;;;;;;;;;;;20.99;26.83;97974.88;4998572;28;1303;-79
2024/03/23 04:07:47;;;;;;;;;;;;;;;20.92;26.89;97972.22;4982680;28;878;-78
2024/03/23 04:10:13;;;;;;;;;;;;;;;20.89;26.97;97981.59;4975125;28;1977;-78
2024/03/23 04:12:38;;;;;;;;;;;;;;;20.80;26.92;97977.31;4975084;28;804;-78
2024/03/23 04:15:04;;;;;;;;;;;;;;;20.73;27.13;97977.50;4959056;28;775;-78
2024/03/23 04:17:31;;;;;;;;;;;;;;;20.59;27.46;97982.69;4959698;28;1175;-78
2024/03/23 04:19:57;;;;;;;;;;;;;;;20.83;27.37;97977.69;4975585;28;785;-78
2024/03/23 04:22:25;;;;;;;;;;;;;;;20.99;26.91;97986.19;4975863;28;720;-78
2024/03/23 04:24:52;;;;;;;;;;;;;;;20.92;27.12;97984.31;4959249;28;1221;-78
2024/03/23 04:27:18;;;;;;;;;;;;;;;20.86;27.23;97982.47;4975370;28;1274;-78
2024/03/23 04:29:46;;;;;;;;;;;;;;;20.50;27.76;97988.94;4975387;28;917;-78
2024/03/23 04:32:13;;;;;;;;;;;;;;;20.79;26.86;97986.25;4959494;28;1906;-78
2024/03/23 04:34:39;;;;;;;;;;;;;;;20.56;27.66;97990.00;4959124;28;787;-77
2024/03/23 04:37:04;;;;;;;;;;;;;;;20.92;27.05;97992.00;5007152;28;890;-78
2024/03/23 04:39:30;;;;;;;;;;;;;;;21.26;26.64;97992.38;4997821;28;911;-78
2024/03/23 04:41:55;;;;;;;;;;;;;;;20.94;27.00;97989.56;5030072;28;822;-78
2024/03/23 04:44:21;;;;;;;;;;;;;;;20.66;27.41;97988.97;5020439;28;941;-78
2024/03/23 04:46:46;;;;;;;;;;;;;;;20.85;26.88;97992.19;5037354;28;810;-78
2024/03/23 04:49:12;;;;;;;;;;;;;;;20.63;27.32;97986.25;5020833;28;1123;-78
2024/03/23 04:51:38;;;;;;;;;;;;;;;20.55;27.68;97996.91;5037457;28;1961;-78
2024/03/23 04:54:04;;;;;;;;;;;;;;;20.91;27.01;97993.25;5020171;28;1384;-78
2024/03/23 04:56:31;;;;;;;;;;;;;;;20.97;27.05;97994.31;5037384;28;763;-78
2024/03/23 04:59:00;;;;;;;;;;;;;;;21.02;26.85;97990.94;5020870;28;1241;-78
2024/03/23 05:01:26;;;;;;;;;;;;;;;20.96;26.87;97993.50;5021569;28;1103;-78
2024/03/23 05:03:52;;;;;;;;;;;;;;;20.86;26.89;97988.13;5037252;28;804;-78
2024/03/23 05:06:18;;;;;;;;;;;;;;;20.86;27.09;97979.63;5021152;28;1180;-78
2024/03/23 05:08:44;;;;;;;;;;;;;;;20.57;27.69;97985.94;5053715;28;806;-78
2024/03/23 05:11:10;;;;;;;;;;;;;;;20.99;27.17;97992.66;5034961;28;1906;-78
2024/03/23 05:13:35;;;;;;;;;;;;;;;20.95;27.06;97991.13;5034702;28;1165;-78
2024/03/23 05:16:01;;;;;;;;;;;;;;;20.95;27.11;97991.13;5036429;28;875;-78
2024/03/23 05:18:28;;;;;;;;;;;;;;;20.73;27.27;97986.00;5001858;28;1415;-78
2024/03/23 05:21:00;;;;;;;;;;;;;;;20.62;27.39;97985.41;5034969;28;866;-78
2024/03/23 05:23:26;;;;;;;;;;;;;;;20.79;27.18;97989.88;5020723;28;1136;-78
2024/03/23 05:25:51;;;;;;;;;;;;;;;20.69;27.50;97985.28;5039142;28;772;-78
2024/03/23 05:28:17;;;;;;;;;;;;;;;20.90;27.22;97988.84;5020742;28;1171;-78
2024/03/23 05:30:43;;;;;;;;;;;;;;;21.08;27.08;97977.88;5021163;28;1906;-78
2024/03/23 05:33:08;;;;;;;;;;;;;;;20.81;27.24;97992.25;5020784;28;901;-78
2024/03/23 05:35:34;;;;;;;;;;;;;;;20.93;27.13;97988.72;5021144;28;789;-78
2024/03/23 05:37:59;;;;;;;;;;;;;;;20.79;26.95;97991.91;5020407;28;913;-78
2024/03/23 05:40:26;;;;;;;;;;;;;;;20.90;26.99;97989.63;5037616;28;812;-78
2024/03/23 05:42:55;;;;;;;;;;;;;;;20.71;27.17;97977.13;5020742;28;1125;-78
2024/03/23 05:45:22;;;;;;;;;;;;;;;20.94;27.25;97989.56;5021104;28;857;-77
2024/03/23 05:47:48;;;;;;;;;;;;;;;21.08;26.81;97989.19;5021173;28;892;-78
2024/03/23 05:50:13;;;;;;;;;;;;;;;20.90;27.17;97988.84;5036873;28;2090;-77
2024/03/23 05:52:39;;;;;;;;;;;;;;;21.02;26.75;97982.47;5020244;28;966;-78
2024/03/23 05:55:05;;;;;;;;;;;;;;;20.95;26.67;97988.31;5020397;28;909;-78
2024/03/23 05:57:30;;;;;;;;;;;;;;;20.86;27.15;97982.47;5020613;28;822;-78
2024/03/23 05:59:56;;;;;;;;;;;;;;;20.97;26.90;97980.16;5037862;28;1289;-78
2024/03/23 06:02:22;;;;;;;;;;;;;;;21.26;26.45;97981.06;5037968;28;1106;-78
2024/03/23 06:04:47;;;;;;;;;;;;;;;21.11;26.92;97982.66;5038580;28;683;-78
2024/03/23 06:07:13;;;;;;;;;;;;;;;21.01;26.74;97980.88;5038129;28;740;-78
2024/03/23 06:09:39;;;;;;;;;;;;;;;20.79;27.10;97978.56;5038122;28;688;-78
2024/03/23 06:12:05;;;;;;;;;;;;;;;20.84;27.09;97979.28;5016819;28;1914;-78
2024/03/23 06:14:31;;;;;;;;;;;;;;;20.55;27.70;97974.28;4984222;28;879;-78
2024/03/23 06:16:56;;;;;;;;;;;;;;;20.77;27.17;97975.38;5001044;28;788;-78
2024/03/23 06:19:22;;;;;;;;;;;;;;;20.79;27.41;97972.91;4984260;28;1252;-78
2024/03/23 06:21:47;;;;;;;;;;;;;;;21.03;27.19;97976.34;5000389;28;958;-78
2024/03/23 06:24:13;;;;;;;;;;;;;;;21.11;26.65;97971.34;5016665;28;814;-78
2024/03/23 06:26:38;;;;;;;;;;;;;;;20.52;27.46;97975.97;4984494;28;1037;-77
2024/03/23 06:29:05;;;;;;;;;;;;;;;20.61;27.58;97977.38;5016499;28;767;-78
2024/03/23 06:31:30;;;;;;;;;;;;;;;20.72;27.21;97975.91;5000744;28;1910;-78
2024/03/23 06:33:56;;;;;;;;;;;;;;;20.72;27.20;97973.06;4999591;28;1255;-78
2024/03/23 06:36:21;;;;;;;;;;;;;;;20.39;27.90;97977.03;4984201;28;1629;-78
2024/03/23 06:38:47;;;;;;;;;;;;;;;20.90;27.31;97983.97;4999855;28;1003;-78
2024/03/23 06:41:12;;;;;;;;;;;;;;;21.17;26.56;97978.03;5016365;28;941;-78
2024/03/23 06:43:38;;;;;;;;;;;;;;;21.13;26.89;97973.72;5032272;28;774;-78
2024/03/23 06:46:06;;;;;;;;;;;;;;;21.19;26.79;97978.41;5039104;28;871;-77
2024/03/23 06:48:32;;;;;;;;;;;;;;;20.69;27.56;97979.63;5020456;28;806;-78
2024/03/23 06:50:57;;;;;;;;;;;;;;;20.70;27.47;97981.19;5053881;28;1913;-78
2024/03/23 06:53:23;;;;;;;;;;;;;;;20.69;27.51;97978.81;5036871;28;837;-78
2024/03/23 06:55:52;;;;;;;;;;;;;;;20.60;27.43;97976.59;5038902;28;823;-78
2024/03/23 06:58:19;;;;;;;;;;;;;;;20.36;27.81;97977.91;5020763;28;736;-78
2024/03/23 07:00:44;;;;;;;;;;;;;;;20.77;27.28;97981.03;5036935;28;719;-78
2024/03/23 07:03:10;;;;;;;;;;;;;;;20.97;26.94;97983.00;5019841;28;1223;-78
2024/03/23 07:05:35;;;;;;;;;;;;;;;20.88;27.06;97977.97;5036881;28;819;-78
2024/03/23 07:08:01;;;;;;;;;;;;;;;20.52;27.56;97978.81;5037579;28;849;-78
2024/03/23 07:10:26;;;;;;;;;;;;;;;20.76;27.13;97979.44;5037349;28;1977;-78
2024/03/23 07:12:52;;;;;;;;;;;;;;;20.81;27.09;97976.09;5020058;28;740;-78
2024/03/23 07:15:17;;;;;;;;;;;;;;;20.95;27.14;97979.81;5053233;28;1051;-78
2024/03/23 07:17:46;;;;;;;;;;;;;;;20.92;27.22;97983.53;5038405;28;712;-78
2024/03/23 07:20:12;;;;;;;;;;;;;;;20.79;27.51;97978.56;5036214;28;732;-78
2024/03/23 07:22:38;;;;;;;;;;;;;;;20.92;26.93;97973.00;5020498;28;728;-77
2024/03/23 07:25:04;;;;;;;;;;;;;;;21.11;27.09;97971.34;5018714;28;1159;-78
2024/03/23 07:27:30;;;;;;;;;;;;;;;21.07;27.02;97973.44;5018763;28;1308;-78
2024/03/23 07:29:55;;;;;;;;;;;;;;;20.84;27.18;97967.97;5018495;28;798;-77
2024/03/23 07:32:21;;;;;;;;;;;;;;;20.72;27.07;97973.06;5035326;28;1918;-78
2024/03/23 07:34:46;;;;;;;;;;;;;;;20.77;27.22;97966.88;5035449;28;834;-78
2024/03/23 07:37:12;;;;;;;;;;;;;;;20.28;27.86;97972.41;5019063;28;920;-78
2024/03/23 07:39:37;;;;;;;;;;;;;;;20.64;27.29;97971.66;5018327;28;756;-77
2024/03/23 07:42:03;;;;;;;;;;;;;;;20.74;27.52;97964.97;5018725;28;1391;-78
2024/03/23 07:44:29;;;;;;;;;;;;;;;20.97;27.23;97977.34;5034567;28;799;-78
2024/03/23 07:46:54;;;;;;;;;;;;;;;21.03;27.19;97970.69;5018235;28;846;-78
2024/03/23 07:49:20;;;;;;;;;;;;;;;21.12;26.76;97972.13;5017939;28;944;-78
2024/03/23 07:51:45;;;;;;;;;;;;;;;20.80;27.39;97963.19;5035264;28;1925;-78
2024/03/23 07:54:11;;;;;;;;;;;;;;;20.62;27.51;97968.47;5018263;28;751;-78
2024/03/23 07:56:36;;;;;;;;;;;;;;;20.73;27.54;97969.03;5035191;28;788;-78
2024/03/23 07:59:03;;;;;;;;;;;;;;;20.50;27.64;97969.16;4978949;28;1191;-78
2024/03/23 08:01:28;;;;;;;;;;;;;;;20.63;27.51;97963.63;4981012;28;879;-78
2024/03/23 08:03:54;;;;;;;;;;;;;;;20.90;27.34;97966.22;4975607;28;862;-78
2024/03/23 08:06:20;;;;;;;;;;;;;;;21.04;27.00;97966.66;4976417;28;859;-78
2024/03/23 08:08:47;;;;;;;;;;;;;;;21.16;26.87;97962.31;4959296;28;1002;-78
2024/03/23 08:11:12;;;;;;;;;;;;;;;20.86;27.46;97971.16;4959662;28;1906;-78
2024/03/23 08:13:41;;;;;;;;;;;;;;;20.66;27.37;97968.38;4959237;28;945;-78
2024/03/23 08:16:06;;;;;;;;;;;;;;;20.58;27.81;97966.97;4959921;28;1268;-78
2024/03/23 08:18:32;;;;;;;;;;;;;;;20.74;27.26;97964.97;4958850;28;1058;-78
2024/03/23 08:20:58;;;;;;;;;;;;;;;20.68;27.56;97966.72;4976346;28;755;-78
2024/03/23 08:23:39;;;;;;;;;;;;;;;21.00;26.89;97963.13;4959543;28;887;-78
2024/03/23 08:26:04;;;;;;;;;;;;;;;21.27;26.76;97957.16;4976995;28;1172;-78
2024/03/23 08:28:30;;;;;;;;;;;;;;;21.08;26.74;97955.22;4974932;28;1149;-78
2024/03/23 08:30:55;;;;;;;;;;;;;;;20.82;27.32;97951.44;4980026;28;1956;-78
2024/03/23 08:33:21;;;;;;;;;;;;;;;20.62;27.29;97950.69;4997510;28;910;-78
2024/03/23 08:35:53;;;;;;;;;;;;;;;20.76;27.31;97939.84;5015552;28;1064;-78
2024/03/23 08:38:19;;;;;;;;;;;;;;;20.90;27.04;97944.38;5017376;28;1226;-78
2024/03/23 08:40:44;;;;;;;;;;;;;;;20.89;27.43;97944.81;4994824;28;1224;-78
2024/03/23 08:43:10;;;;;;;;;;;;;;;20.81;27.59;97936.50;4994630;28;1508;-78
2024/03/23 08:45:35;;;;;;;;;;;;;;;20.98;27.01;97942.16;4995018;28;819;-78
2024/03/23 08:48:01;;;;;;;;;;;;;;;20.74;27.34;97936.69;4994787;28;1198;-78
2024/03/23 08:50:26;;;;;;;;;;;;;;;20.99;27.13;97941.72;4978862;28;1968;-78
2024/03/23 08:52:52;;;;;;;;;;;;;;;20.70;27.42;97935.97;4995059;28;956;-78
2024/03/23 08:55:17;;;;;;;;;;;;;;;20.86;27.24;97937.22;4994920;28;929;-78
2024/03/23 08:57:43;;;;;;;;;;;;;;;20.98;27.27;97933.66;4995056;28;823;-78
2024/03/23 09:00:11;;;;;;;;;;;;;;;20.99;27.20;97930.41;4998054;28;863;-78
2024/03/23 09:02:36;;;;;;;;;;;;;;;20.96;27.24;97919.19;4982390;28;713;-78
2024/03/23 09:05:04;;;;;;;;;;;;;;;21.12;26.78;97927.66;4986388;28;1166;-78
2024/03/23 09:07:32;;;;;;;;;;;;;;;21.05;26.82;97933.50;4998574;28;938;-78
2024/03/23 09:09:58;;;;;;;;;;;;;;;20.60;27.35;97930.56;4998323;28;862;-78
2024/03/23 09:12:24;;;;;;;;;;;;;;;20.79;27.26;97927.66;5058091;28;1918;-78
2024/03/23 09:14:50;;;;;;;;;;;;;;;20.91;27.08;97916.88;5022492;28;684;-78
2024/03/23 09:17:15;;;;;;;;;;;;;;;20.98;27.16;97917.50;5038941;28;850;-78
2024/03/23 09:19:41;;;;;;;;;;;;;;;20.89;27.44;97920.16;5022160;28;913;-78
2024/03/23 09:22:06;;;;;;;;;;;;;;;20.91;26.97;97916.88;5039833;28;708;-78
2024/03/23 09:24:32;;;;;;;;;;;;;;;20.91;27.03;97911.22;5038372;28;1121;-78
2024/03/23 09:26:57;;;;;;;;;;;;;;;20.68;27.31;97901.69;5038625;28;1009;-78
2024/03/23 09:29:23;;;;;;;;;;;;;;;20.52;27.96;97905.31;5038557;28;834;-78
2024/03/23 09:31:48;;;;;;;;;;;;;;;20.65;27.70;97911.03;5040005;28;1993;-78
2024/03/23 09:34:15;;;;;;;;;;;;;;;20.97;27.23;97910.25;5039450;28;960;-78
2024/03/23 09:36:40;;;;;;;;;;;;;;;21.07;26.90;97900.69;5006050;28;1112;-77
2024/03/23 09:39:06;;;;;;;;;;;;;;;21.03;27.04;97890.69;5038418;28;884;-78
2024/03/23 09:41:32;;;;;;;;;;;;;;;20.90;27.22;97892.69;5038360;28;803;-77
2024/03/23 09:43:57;;;;;;;;;;;;;;;20.95;27.05;97883.66;5038322;28;861;-78
2024/03/23 09:46:23;;;;;;;;;;;;;;;20.78;27.20;97883.66;5022177;28;880;-78
2024/03/23 09:48:48;;;;;;;;;;;;;;;20.71;27.29;97875.34;5037948;28;811;-78
2024/03/23 09:51:14;;;;;;;;;;;;;;;20.75;27.34;97881.72;5038106;28;1965;-78
2024/03/23 09:53:39;;;;;;;;;;;;;;;21.12;27.07;97885.22;5004875;28;1410;-78
2024/03/23 09:56:05;;;;;;;;;;;;;;;21.10;27.06;97867.91;5039348;28;902;-78
2024/03/23 09:58:32;;;;;;;;;;;;;;;20.86;27.41;97875.00;5037511;28;949;-78
2024/03/23 10:00:57;;;;;;;;;;;;;;;20.40;27.74;97868.41;5022245;28;767;-78
2024/03/23 10:03:23;;;;;;;;;;;;;;;20.81;27.40;97879.94;5037880;28;791;-78
2024/03/23 10:05:58;;;;;;;;;;;;;;;20.77;27.33;97870.75;5037902;28;740;-78
2024/03/23 10:08:25;;;;;;;;;;;;;;;20.90;27.42;97864.41;5037328;28;1305;-78
2024/03/23 10:10:51;;;;;;;;;;;;;;;20.85;27.44;97862.09;5036955;28;1906;-77
2024/03/23 10:13:31;;;;;;;;;;;;;;;21.12;26.99;97854.09;5037585;28;818;-78
2024/03/23 10:16:00;;;;;;;;;;;;;;;20.90;27.14;97853.09;5038037;28;775;-78
2024/03/23 10:18:28;;;;;;;;;;;;;;;20.75;27.53;97844.16;5038462;28;752;-78
2024/03/23 10:21:06;;;;;;;;;;;;;;;20.72;27.22;97843.00;5021567;28;1349;-78
2024/03/23 10:23:32;;;;;;;;;;;;;;;20.72;27.17;97842.22;5038353;28;813;-78
2024/03/23 10:26:16;;;;;;;;;;;;;;;20.94;27.22;97845.31;5020033;28;995;-78
2024/03/23 10:28:51;;;;;;;;;;;;;;;20.84;27.31;97833.03;5038118;28;1409;-78
2024/03/23 10:31:16;;;;;;;;;;;;;;;20.88;27.18;97832.91;5038601;28;1976;-78
2024/03/23 10:33:46;;;;;;;;;;;;;;;21.02;26.82;97826.88;5037031;28;1230;-78
2024/03/23 10:36:12;;;;;;;;;;;;;;;20.74;27.54;97834.88;5037900;28;731;-78
2024/03/23 10:38:37;;;;;;;;;;;;;;;20.61;27.48;97824.72;5037069;28;765;-78
2024/03/23 10:41:03;;;;;;;;;;;;;;;20.69;27.55;97815.63;5037123;28;791;-78
2024/03/23 10:43:29;;;;;;;;;;;;;;;20.58;27.49;97809.47;5070013;28;748;-78
2024/03/23 10:45:55;;;;;;;;;;;;;;;20.96;27.26;97801.19;5037540;28;846;-78
2024/03/23 10:48:20;;;;;;;;;;;;;;;20.98;26.96;97806.38;5038384;28;679;-78
2024/03/23 10:50:46;;;;;;;;;;;;;;;21.05;27.05;97803.38;5038406;28;1918;-78
2024/03/23 10:53:12;;;;;;;;;;;;;;;21.01;27.25;97797.00;5036914;28;739;-78
2024/03/23 10:55:37;;;;;;;;;;;;;;;20.88;27.36;97796.16;5036878;28;1209;-78
2024/03/23 10:58:03;;;;;;;;;;;;;;;20.91;27.14;97795.28;5020120;28;792;-78
2024/03/23 11:00:28;;;;;;;;;;;;;;;20.58;27.61;97789.69;5019329;28;924;-78
2024/03/23 11:02:54;;;;;;;;;;;;;;;20.51;28.12;97792.66;5036778;28;819;-78
2024/03/23 11:05:28;;;;;;;;;;;;;;;20.98;27.32;97793.03;4999293;28;991;-78
2024/03/23 11:07:54;;;;;;;;;;;;;;;21.04;26.97;97784.81;5015726;28;974;-78
2024/03/23 11:10:26;;;;;;;;;;;;;;;20.93;27.04;97775.81;4998967;28;1906;-78
2024/03/23 11:12:52;;;;;;;;;;;;;;;20.70;27.76;97776.84;4999069;28;917;-78
2024/03/23 11:15:18;;;;;;;;;;;;;;;20.75;27.39;97768.63;5015311;28;940;-78
2024/03/23 11:17:53;;;;;;;;;;;;;;;20.56;27.91;97763.88;4983038;28;1957;-78
2024/03/23 11:20:20;;;;;;;;;;;;;;;20.78;27.54;97762.09;5012251;28;819;-78
2024/03/23 11:22:49;;;;;;;;;;;;;;;20.73;27.39;97765.44;5012621;28;736;-78
2024/03/23 11:25:15;;;;;;;;;;;;;;;20.84;27.53;97764.38;4983139;28;767;-78
2024/03/23 11:27:41;;;;;;;;;;;;;;;21.07;27.04;97752.78;4998550;28;1082;-78
2024/03/23 11:30:15;;;;;;;;;;;;;;;21.11;26.88;97750.66;4998613;28;1912;-78
2024/03/23 11:32:44;;;;;;;;;;;;;;;20.60;27.95;97741.16;4975775;28;1003;-78
2024/03/23 11:35:10;;;;;;;;;;;;;;;20.62;27.92;97736.66;4960651;28;843;-78
2024/03/23 11:37:36;;;;;;;;;;;;;;;20.52;27.70;97740.56;4979801;28;771;-78
2024/03/23 11:40:16;;;;;;;;;;;;;;;20.64;27.59;97739.84;4979024;28;847;-77
2024/03/23 11:42:41;;;;;;;;;;;;;;;21.13;27.11;97736.06;4963002;28;918;-78
2024/03/23 11:45:08;;;;;;;;;;;;;;;21.12;27.11;97740.94;5034818;28;1218;-78
2024/03/23 11:47:33;;;;;;;;;;;;;;;20.87;27.34;97732.34;5018341;28;901;-78
2024/03/23 11:49:59;;;;;;;;;;;;;;;20.95;27.05;97730.94;5001657;28;1150;-78
2024/03/23 11:52:25;;;;;;;;;;;;;;;20.87;27.08;97723.88;5034399;28;1906;-78
2024/03/23 11:54:50;;;;;;;;;;;;;;;20.70;27.45;97720.31;4994975;28;952;-77
2024/03/23 11:57:16;;;;;;;;;;;;;;;20.92;27.21;97720.50;4994914;28;1340;-78
2024/03/23 11:59:41;;;;;;;;;;;;;;;21.07;27.33;97716.00;4995206;28;785;-77
2024/03/23 12:02:07;;;;;;;;;;;;;;;21.15;27.01;97714.59;4963025;28;882;-78
2024/03/23 12:04:35;;;;;;;;;;;;;;;21.22;26.97;97717.19;4994771;28;910;-78
2024/03/23 12:07:14;;;;;;;;;;;;;;;21.05;27.09;97705.16;4991272;28;924;-77
2024/03/23 12:09:40;;;;;;;;;;;;;;;20.71;27.38;97697.22;4975311;28;1534;-78
2024/03/23 12:12:18;;;;;;;;;;;;;;;20.89;27.23;97701.59;4991317;28;1903;-78
2024/03/23 12:14:44;;;;;;;;;;;;;;;21.06;27.31;97689.75;4991228;28;815;-78
2024/03/23 12:17:13;;;;;;;;;;;;;;;21.08;27.00;97692.13;4975271;28;903;-78
2024/03/23 12:19:38;;;;;;;;;;;;;;;21.21;26.88;97692.97;4955549;29;911;-78
2024/03/23 12:22:04;;;;;;;;;;;;;;;20.78;27.55;97694.22;4952651;29;906;-78
2024/03/23 12:24:31;;;;;;;;;;;;;;;20.97;27.30;97688.84;4952274;29;774;-78
2024/03/23 12:26:59;;;;;;;;;;;;;;;20.91;27.23;97684.97;4935785;29;1220;-77
2024/03/23 12:29:26;;;;;;;;;;;;;;;20.87;27.14;97684.28;4936666;29;912;-78
2024/03/23 12:31:51;;;;;;;;;;;;;;;21.02;27.35;97680.59;4952633;29;1907;-78
2024/03/23 12:34:17;;;;;;;;;;;;;;;21.14;26.95;97684.72;4951877;29;942;-78
2024/03/23 12:36:43;;;;;;;;;;;;;;;21.02;27.12;97679.78;4905226;29;1142;-78
2024/03/23 12:39:08;;;;;;;;;;;;;;;20.84;27.42;97676.72;4917932;29;907;-78
2024/03/23 12:41:34;;;;;;;;;;;;;;;20.93;27.26;97671.16;4933841;29;899;-78
2024/03/23 12:43:59;;;;;;;;;;;;;;;21.02;27.15;97674.13;4917639;29;794;-78
2024/03/23 12:46:25;;;;;;;;;;;;;;;20.99;27.26;97670.19;4917681;29;894;-78
2024/03/23 12:48:51;;;;;;;;;;;;;;;20.91;27.34;97673.66;4917059;29;941;-78
2024/03/23 12:51:16;;;;;;;;;;;;;;;20.98;27.53;97673.44;4962486;28;1906;-78
2024/03/23 12:53:42;;;;;;;;;;;;;;;21.24;27.14;97668.63;5001221;28;1006;-78
2024/03/23 12:56:11;;;;;;;;;;;;;;;21.05;27.01;97661.94;4978508;28;1358;-78